Impacts METAR Board
IDs:

KSAN - San Diego Intl Arpt, CA, US

Updated at: 2200 UTC 25 May 2018
Potential Impact None Slight Moderate High
Time 25/10Z 25/11Z 25/12Z 25/13Z 25/14Z 25/15Z 25/16Z 25/17Z 25/18Z 25/19Z 25/20Z 25/21Z 25/22Z
Temp62 62 62 61 62 63 64 64 66 67 67 69 68
Dewpt51 52 52 54 52 52 53 53 53 53 53 52 52
Altim30.11 30.10 30.10 30.10 30.12 30.13 30.14 30.14 30.14 30.14 30.14 30.13 30.11
VIS10 10 10 10 10 10 10 10 10 10 10 10 10
CIG38 40 40 17 43 44 44 43 41 40 -- -- --
CoverOVCOVCOVCBKNBKNBKNBKNBKNBKNBKNSCTSCTFEW
FltCatVFRVFRVFRMVFRVFRVFRVFRVFRVFRVFRVFRVFRVFR
WX--------------------------
WDir300300310300310320290300310310300300310
WSpd5 5 5 6 5 6 11 11 10 13 10 11 11
WGst-- -- -- -- -- -- -- -- -- -- -- -- --
Raw hourly METARs
KSAN 250951Z 30005KT 10SM SCT021 OVC038 17/11 A3011 RMK AO2 SLP195 T01670106
KSAN 251051Z 30005KT 10SM SCT022 OVC040 17/11 A3010 RMK AO2 SLP193 T01670111
KSAN 251151Z 31005KT 10SM FEW022 OVC040 17/11 A3010 RMK AO2 SLP193 T01670111 10167 20167 56004
KSAN 251251Z 30006KT 10SM FEW012 BKN017 BKN043 16/12 A3010 RMK AO2 SLP194 T01610122
KSAN 251351Z 31005KT 10SM FEW012 SCT017 BKN043 17/11 A3012 RMK AO2 SLP199 T01670111
KSAN 251451Z 32006KT 10SM SCT022 BKN044 17/11 A3013 RMK AO2 SLP202 T01720111 53008
KSAN 251551Z 29011KT 10SM SCT022 BKN044 18/12 A3014 RMK AO2 SLP205 T01780117
KSAN 251651Z 30011KT 10SM SCT024 BKN043 18/12 A3014 RMK AO2 SLP205 T01780117
KSAN 251751Z 31010KT 10SM SCT024 BKN041 19/12 A3014 RMK AO2 SLP207 T01890117 10189 20161 51005
KSAN 251851Z 31013KT 10SM SCT024 BKN040 19/12 A3014 RMK AO2 SLP206 T01940117
KSAN 251951Z 30010KT 10SM SCT024 SCT040 19/12 A3014 RMK AO2 SLP206 T01940117
KSAN 252051Z 30011KT 10SM SCT024 SCT040 21/11 A3013 RMK AO2 SLP203 T02060111 58003
KSAN 252151Z 31011KT 10SM FEW024 FEW040 20/11 A3011 RMK AO2 SLP197 T02000111



Page loaded:  22:31 UTC  |   03:31 PM Pacific  |   04:31 PM Mountain  |   05:31 PM Central  |   06:31 PM Eastern

 

ADVISORIES

FORECASTS

FORECASTS

OBSERVATIONS

USER TOOLS

ABOUT US